Time;durP1;ratioP1;P1;durP2;ratioP2;P2;SDS_P1;SDS_P2;PMS_P1;PMS_P2;Temp;Humidity;BMP_temperature;BMP_pressure;BME280_temperature;BME280_humidity;BME280_pressure;Samples;Min_cycle;Max_cycle;Signal;HPM_P1;HPM_P2
2020/12/05 00:01:53;;;;;;;14.17;10.20;;;5.10;99.90;;;;;;4997756;28;20203;-81
2020/12/05 00:04:18;;;;;;;15.10;9.90;;;5.10;99.90;;;;;;5017307;28;20359;-81
2020/12/05 00:06:44;;;;;;;15.63;9.97;;;5.10;99.90;;;;;;5004357;28;20209;-81
2020/12/05 00:09:10;;;;;;;14.43;9.80;;;5.10;99.90;;;;;;5016495;28;20181;-82
2020/12/05 00:11:35;;;;;;;15.20;10.63;;;5.10;99.90;;;;;;5017433;28;20173;-82
2020/12/05 00:14:01;;;;;;;14.27;9.90;;;5.20;99.90;;;;;;5000953;28;20184;-81
2020/12/05 00:16:26;;;;;;;16.67;10.30;;;5.20;99.90;;;;;;5000328;28;20643;-81
2020/12/05 00:18:54;;;;;;;13.53;9.70;;;5.20;99.90;;;;;;4999864;28;20191;-82
2020/12/05 00:21:20;;;;;;;12.80;9.37;;;5.10;99.90;;;;;;5001556;28;20622;-82
2020/12/05 00:23:45;;;;;;;14.53;10.33;;;5.10;99.90;;;;;;5002346;28;20639;-79
2020/12/05 00:26:18;;;;;;;14.03;10.20;;;5.00;99.90;;;;;;5019213;28;20168;-80
2020/12/05 00:28:43;;;;;;;16.60;11.20;;;5.00;99.90;;;;;;5002751;28;20199;-80
2020/12/05 00:31:11;;;;;;;14.40;10.00;;;5.10;99.90;;;;;;5003744;28;20701;-81
2020/12/05 00:33:36;;;;;;;16.70;10.97;;;5.00;99.90;;;;;;5001187;28;20176;-82
2020/12/05 00:36:02;;;;;;;15.40;10.17;;;5.00;99.90;;;;;;4999039;28;20647;-82
2020/12/05 00:38:28;;;;;;;12.87;9.80;;;5.00;99.90;;;;;;5015335;28;20207;-81
2020/12/05 00:40:53;;;;;;;13.17;9.90;;;5.00;99.90;;;;;;4998880;28;20340;-81
2020/12/05 00:43:19;;;;;;;13.27;9.73;;;5.00;99.90;;;;;;5015449;28;20184;-82
2020/12/05 00:45:44;;;;;;;13.70;9.87;;;5.00;99.90;;;;;;4998876;28;20184;-82
2020/12/05 00:48:10;;;;;;;13.77;10.13;;;4.90;99.90;;;;;;4998509;28;20203;-82
2020/12/05 00:50:35;;;;;;;13.67;9.97;;;4.90;99.90;;;;;;5015012;28;20187;-82
2020/12/05 00:53:01;;;;;;;14.80;9.97;;;4.90;99.90;;;;;;4998948;28;20179;-82
2020/12/05 00:55:26;;;;;;;15.50;10.13;;;4.90;99.90;;;;;;5014786;28;20366;-82
2020/12/05 00:57:52;;;;;;;16.57;10.80;;;4.90;99.90;;;;;;5014786;28;20231;-82
2020/12/05 01:00:18;;;;;;;15.13;10.47;;;4.90;99.90;;;;;;5014984;28;20635;-82
2020/12/05 01:02:45;;;;;;;18.57;10.00;;;4.90;99.90;;;;;;5020019;28;20213;-82
2020/12/05 01:05:11;;;;;;;16.63;10.80;;;4.90;99.90;;;;;;5002399;28;20179;-82
2020/12/05 01:07:36;;;;;;;14.80;10.77;;;4.80;99.90;;;;;;5017826;28;20197;-82
2020/12/05 01:10:02;;;;;;;16.07;11.00;;;4.80;99.90;;;;;;4989747;28;20199;-83
2020/12/05 01:12:28;;;;;;;16.97;10.77;;;4.80;99.90;;;;;;4998625;28;20183;-82
2020/12/05 01:14:53;;;;;;;13.73;10.20;;;4.80;99.90;;;;;;5014577;28;20651;-82
2020/12/05 01:17:25;;;;;;;14.70;11.07;;;4.90;99.90;;;;;;5014548;28;20227;-82
2020/12/05 01:19:52;;;;;;;15.57;10.67;;;5.00;99.90;;;;;;4998000;28;20232;-82
2020/12/05 01:22:20;;;;;;;16.27;10.67;;;4.90;99.90;;;;;;5014922;28;20199;-80
2020/12/05 01:24:45;;;;;;;15.13;10.30;;;4.90;99.90;;;;;;4998188;28;20179;-82
2020/12/05 01:27:11;;;;;;;15.20;10.10;;;4.90;99.90;;;;;;4997701;28;20203;-82
2020/12/05 01:29:36;;;;;;;16.33;11.33;;;4.90;99.90;;;;;;4981617;28;20655;-81
2020/12/05 01:32:02;;;;;;;15.37;10.90;;;4.90;99.90;;;;;;4982048;28;20254;-82
2020/12/05 01:34:27;;;;;;;16.43;11.47;;;4.90;99.90;;;;;;4997633;28;20709;-82
2020/12/05 01:36:53;;;;;;;17.17;11.63;;;4.90;99.90;;;;;;4981237;28;20204;-80
2020/12/05 01:39:18;;;;;;;18.93;12.10;;;4.80;99.90;;;;;;4997805;28;20187;-81
2020/12/05 01:41:44;;;;;;;20.60;12.77;;;4.80;99.90;;;;;;4982507;28;20203;-82
2020/12/05 01:44:09;;;;;;;21.17;12.87;;;4.80;99.90;;;;;;4981651;28;20179;-82
2020/12/05 01:46:39;;;;;;;20.60;12.13;;;4.70;99.90;;;;;;4981869;28;20183;-82
2020/12/05 01:49:08;;;;;;;19.70;12.70;;;4.80;99.90;;;;;;4981662;28;20233;-83
2020/12/05 01:51:35;;;;;;;18.40;12.20;;;4.70;99.90;;;;;;4998109;28;20180;-83
2020/12/05 01:54:00;;;;;;;19.47;12.93;;;4.70;99.90;;;;;;4998330;28;20262;-83
2020/12/05 01:56:27;;;;;;;20.37;12.97;;;4.70;99.90;;;;;;4980809;28;20613;-82
2020/12/05 01:58:52;;;;;;;20.70;12.23;;;4.70;99.90;;;;;;4981383;28;20230;-83
2020/12/05 02:01:22;;;;;;;20.60;12.50;;;4.70;99.90;;;;;;4996498;28;20208;-82
2020/12/05 02:03:50;;;;;;;18.90;12.60;;;4.70;99.90;;;;;;5011517;28;20665;-79
2020/12/05 02:06:26;;;;;;;18.90;12.43;;;4.70;99.90;;;;;;5038130;28;20262;-79
2020/12/05 02:09:00;;;;;;;19.23;12.10;;;4.60;99.90;;;;;;5019244;28;20258;-80
2020/12/05 02:11:33;;;;;;;17.53;11.53;;;4.70;99.90;;;;;;5001258;28;20178;-79
2020/12/05 02:14:01;;;;;;;19.47;12.77;;;4.60;99.90;;;;;;5000941;28;20175;-79
2020/12/05 02:16:26;;;;;;;18.80;13.13;;;4.60;99.90;;;;;;5016777;28;20179;-80
2020/12/05 02:18:52;;;;;;;22.03;12.43;;;4.60;99.90;;;;;;5000228;28;20199;-81
2020/12/05 02:21:17;;;;;;;19.23;13.10;;;4.60;99.90;;;;;;5015521;28;20655;-82
2020/12/05 02:23:46;;;;;;;23.27;12.40;;;4.60;99.90;;;;;;4999258;28;20186;-81
2020/12/05 02:26:12;;;;;;;18.20;12.87;;;4.60;99.90;;;;;;4999523;28;20230;-80
2020/12/05 02:28:37;;;;;;;21.57;13.70;;;4.60;99.90;;;;;;4983053;28;20195;-81
2020/12/05 02:31:03;;;;;;;21.33;14.57;;;4.60;99.90;;;;;;4992338;22;20159;-81
2020/12/05 02:33:28;;;;;;;20.10;13.97;;;4.50;99.90;;;;;;4982169;28;20549;-82
2020/12/05 02:35:54;;;;;;;19.77;13.77;;;4.50;99.90;;;;;;5000139;28;20205;-82
2020/12/05 02:38:37;;;;;;;22.73;14.00;;;4.60;99.90;;;;;;5006414;28;20171;-80
2020/12/05 02:41:03;;;;;;;23.57;14.53;;;4.60;99.90;;;;;;5021282;28;20226;-82
2020/12/05 02:43:28;;;;;;;24.03;14.50;;;4.70;99.90;;;;;;4995990;28;20260;-80
2020/12/05 02:45:54;;;;;;;19.13;13.30;;;4.70;99.90;;;;;;5013275;28;20176;-82
2020/12/05 02:48:20;;;;;;;19.50;13.00;;;4.80;99.90;;;;;;4996534;28;20546;-82
2020/12/05 02:50:45;;;;;;;18.07;12.40;;;4.80;99.90;;;;;;4980585;28;20677;-82
2020/12/05 02:53:11;;;;;;;16.77;11.37;;;4.80;99.90;;;;;;4980566;28;20717;-81
2020/12/05 02:55:36;;;;;;;17.67;11.63;;;4.80;99.90;;;;;;5001182;28;20187;-80
2020/12/05 02:58:02;;;;;;;17.97;12.10;;;4.80;99.90;;;;;;5001025;28;20201;-81
2020/12/05 03:00:27;;;;;;;19.03;11.87;;;4.80;99.90;;;;;;4983908;28;20179;-81
2020/12/05 03:02:53;;;;;;;17.00;10.87;;;4.70;99.90;;;;;;5005388;28;20699;-78
2020/12/05 03:05:18;;;;;;;18.63;11.30;;;4.70;99.90;;;;;;5035985;28;20309;-81
2020/12/05 03:07:44;;;;;;;17.33;11.77;;;4.70;99.90;;;;;;5002691;28;20182;-81
2020/12/05 03:10:10;;;;;;;16.30;11.53;;;4.80;99.90;;;;;;4989302;28;20172;-81
2020/12/05 03:12:36;;;;;;;17.73;12.10;;;4.80;99.90;;;;;;4983283;28;20581;-80
2020/12/05 03:15:02;;;;;;;17.90;11.50;;;4.80;99.90;;;;;;4987068;28;20194;-79
2020/12/05 03:17:27;;;;;;;19.43;11.87;;;4.80;99.90;;;;;;5002802;28;20643;-80
2020/12/05 03:19:53;;;;;;;22.73;12.57;;;4.90;99.90;;;;;;5002622;28;20210;-82
2020/12/05 03:22:18;;;;;;;17.40;13.03;;;4.80;99.90;;;;;;5002336;28;20200;-82
2020/12/05 03:24:44;;;;;;;18.17;12.47;;;4.70;99.90;;;;;;4986160;28;20171;-81
2020/12/05 03:27:09;;;;;;;16.40;11.13;;;4.70;99.90;;;;;;4982124;28;20219;-79
2020/12/05 03:29:37;;;;;;;19.23;12.23;;;4.70;99.90;;;;;;4966006;28;20172;-82
2020/12/05 03:32:10;;;;;;;16.63;11.83;;;4.70;99.90;;;;;;4982898;28;20227;-81
2020/12/05 03:34:36;;;;;;;18.20;12.73;;;4.70;99.90;;;;;;4967074;28;20183;-80
2020/12/05 03:37:01;;;;;;;16.47;12.60;;;4.70;99.90;;;;;;4981618;28;20191;-82
2020/12/05 03:39:27;;;;;;;20.17;13.23;;;4.70;99.90;;;;;;4981632;28;20191;-80
2020/12/05 03:41:52;;;;;;;18.40;13.33;;;4.60;99.90;;;;;;4965527;28;20307;-82
2020/12/05 03:44:18;;;;;;;20.57;13.23;;;4.60;99.90;;;;;;4981260;28;20176;-82
2020/12/05 03:46:43;;;;;;;18.73;13.47;;;4.60;99.90;;;;;;4980699;28;20172;-83
2020/12/05 03:49:09;;;;;;;17.20;12.43;;;4.60;99.90;;;;;;4965167;28;20178;-83
2020/12/05 03:51:34;;;;;;;18.87;13.30;;;4.60;99.90;;;;;;4980576;28;20259;-81
2020/12/05 03:54:00;;;;;;;20.83;13.03;;;4.60;99.90;;;;;;4979933;28;20183;-82
2020/12/05 03:56:25;;;;;;;17.67;12.40;;;4.60;99.90;;;;;;4964151;28;20283;-83
2020/12/05 03:58:53;;;;;;;21.03;13.33;;;4.70;99.90;;;;;;4980235;28;20279;-82
2020/12/05 04:01:18;;;;;;;19.03;13.33;;;4.70;99.90;;;;;;4963965;28;20231;-79
2020/12/05 04:03:44;;;;;;;20.80;13.80;;;4.70;99.90;;;;;;4964148;28;20183;-82
2020/12/05 04:06:12;;;;;;;21.47;14.67;;;4.70;99.90;;;;;;4963459;28;20275;-83
2020/12/05 04:08:39;;;;;;;20.10;14.07;;;4.70;99.90;;;;;;4964060;28;20187;-82
2020/12/05 04:11:04;;;;;;;21.93;13.70;;;4.70;99.90;;;;;;4963312;28;20188;-84
2020/12/05 04:13:30;;;;;;;19.67;14.00;;;4.60;99.90;;;;;;4964084;28;20176;-82
2020/12/05 04:15:55;;;;;;;20.53;14.47;;;4.60;99.90;;;;;;4963206;28;20267;-83
2020/12/05 04:18:21;;;;;;;19.40;14.27;;;4.60;99.90;;;;;;4963539;28;20224;-82
2020/12/05 04:20:46;;;;;;;18.97;13.90;;;4.60;99.90;;;;;;4979765;28;20181;-83
2020/12/05 04:23:12;;;;;;;21.70;14.17;;;4.60;99.90;;;;;;4963103;28;20270;-83
2020/12/05 04:25:37;;;;;;;21.67;14.63;;;4.60;99.90;;;;;;4962838;28;20176;-82
2020/12/05 04:28:03;;;;;;;20.30;13.90;;;4.60;99.90;;;;;;4979872;28;20187;-82
2020/12/05 04:30:28;;;;;;;19.60;14.43;;;4.60;99.90;;;;;;4966898;28;20215;-83
2020/12/05 04:32:54;;;;;;;19.27;13.80;;;4.60;99.90;;;;;;4982931;28;20216;-82
2020/12/05 04:35:20;;;;;;;21.60;14.83;;;4.60;99.90;;;;;;4982969;28;20180;-83
2020/12/05 04:37:45;;;;;;;19.83;14.30;;;4.70;99.90;;;;;;4966399;28;20606;-82
2020/12/05 04:40:11;;;;;;;19.53;13.77;;;4.70;99.90;;;;;;4982971;28;20180;-83
2020/12/05 04:42:44;;;;;;;18.67;14.10;;;4.70;99.90;;;;;;4966645;28;20217;-83
2020/12/05 04:45:09;;;;;;;18.83;13.27;;;4.70;99.90;;;;;;4982768;28;20172;-81
2020/12/05 04:47:35;;;;;;;21.83;13.73;;;4.70;99.90;;;;;;4982324;28;20176;-83
2020/12/05 04:50:00;;;;;;;17.20;13.47;;;4.70;99.90;;;;;;4966909;28;20184;-83
2020/12/05 04:52:38;;;;;;;19.23;12.63;;;4.70;99.90;;;;;;4982617;28;20218;-83
2020/12/05 04:55:04;;;;;;;17.80;13.20;;;4.70;99.90;;;;;;4984019;28;20195;-82
2020/12/05 04:57:29;;;;;;;18.17;13.80;;;4.70;99.90;;;;;;4966114;28;20302;-82
2020/12/05 04:59:55;;;;;;;16.87;13.67;;;4.70;99.90;;;;;;4965685;28;20187;-83
2020/12/05 05:02:27;;;;;;;15.37;12.73;;;4.70;99.90;;;;;;4967781;28;20216;-82
2020/12/05 05:04:53;;;;;;;17.27;13.30;;;4.70;99.90;;;;;;5001161;28;20265;-84
2020/12/05 05:07:20;;;;;;;19.10;13.70;;;4.70;99.90;;;;;;5001360;28;20628;-84
2020/12/05 05:09:52;;;;;;;17.67;13.33;;;4.70;99.90;;;;;;5017500;28;20553;-84
2020/12/05 05:12:35;;;;;;;19.60;14.53;;;4.70;99.90;;;;;;5018166;28;20200;-85
2020/12/05 05:15:01;;;;;;;18.27;13.67;;;4.60;99.90;;;;;;5018306;28;20178;-84
2020/12/05 05:17:27;;;;;;;21.03;13.93;;;4.60;99.90;;;;;;5033979;28;20179;-83
2020/12/05 05:19:52;;;;;;;20.00;13.80;;;4.60;99.90;;;;;;5017369;28;20183;-83
2020/12/05 05:22:21;;;;;;;18.47;13.67;;;4.60;99.90;;;;;;5017353;28;20215;-84
2020/12/05 05:25:04;;;;;;;19.13;14.23;;;4.70;99.90;;;;;;5033998;28;20179;-84
2020/12/05 05:27:29;;;;;;;18.60;13.80;;;4.70;99.90;;;;;;4984571;28;20238;-84
2020/12/05 05:29:57;;;;;;;19.13;14.30;;;4.70;99.90;;;;;;4961578;28;20181;-84
2020/12/05 05:32:28;;;;;;;21.37;13.63;;;4.70;99.90;;;;;;4962218;28;20224;-84
2020/12/05 05:35:12;;;;;;;21.37;15.03;;;4.70;99.90;;;;;;4963031;28;20161;-84
2020/12/05 05:37:37;;;;;;;17.67;13.77;;;4.60;99.90;;;;;;4962569;28;20176;-83
2020/12/05 05:40:04;;;;;;;18.63;13.93;;;4.70;99.90;;;;;;4962117;28;20191;-84
2020/12/05 05:42:34;;;;;;;20.20;14.20;;;4.70;99.90;;;;;;4962261;28;20213;-84
2020/12/05 05:45:20;;;;;;;19.83;14.37;;;4.70;99.90;;;;;;4963259;28;20169;-85
2020/12/05 05:47:46;;;;;;;18.33;14.03;;;4.70;99.90;;;;;;4978861;28;20168;-84
2020/12/05 05:50:25;;;;;;;20.73;14.70;;;4.70;99.90;;;;;;4962055;28;20718;-84
2020/12/05 05:53:02;;;;;;;18.37;13.50;;;4.60;99.90;;;;;;4962542;28;20204;-84
2020/12/05 05:55:44;;;;;;;21.43;14.50;;;4.60;99.90;;;;;;4962613;28;20608;-84
2020/12/05 05:58:11;;;;;;;21.70;15.53;;;4.60;99.90;;;;;;4978207;28;20184;-82
2020/12/05 06:00:41;;;;;;;19.90;15.43;;;4.70;99.90;;;;;;4962655;28;20188;-84
2020/12/05 06:03:15;;;;;;;20.57;15.03;;;4.70;99.90;;;;;;4973581;28;20218;-84
2020/12/05 06:05:44;;;;;;;20.80;16.23;;;4.70;99.90;;;;;;5000704;28;20186;-83
2020/12/05 06:08:15;;;;;;;21.63;15.83;;;4.70;99.90;;;;;;5016791;28;20179;-84
2020/12/05 06:10:40;;;;;;;20.43;15.30;;;4.70;99.90;;;;;;5001654;28;20189;-83
2020/12/05 06:13:06;;;;;;;19.90;15.03;;;4.60;99.90;;;;;;5001648;28;20262;-84
2020/12/05 06:15:31;;;;;;;22.37;16.47;;;4.60;99.90;;;;;;5017714;28;20611;-83
2020/12/05 06:17:58;;;;;;;18.90;15.07;;;4.60;99.90;;;;;;5001635;28;20187;-84
2020/12/05 06:20:24;;;;;;;22.30;15.77;;;4.60;99.90;;;;;;5002283;28;20202;-84
2020/12/05 06:22:50;;;;;;;18.07;14.13;;;4.70;99.90;;;;;;5017293;28;20242;-84
2020/12/05 06:25:16;;;;;;;19.77;14.67;;;4.70;99.90;;;;;;5001382;28;20690;-84
2020/12/05 06:27:56;;;;;;;18.23;14.80;;;4.70;99.90;;;;;;5002630;28;20303;-83
2020/12/05 06:30:21;;;;;;;20.47;15.30;;;4.70;99.90;;;;;;4997433;28;20239;-84
2020/12/05 06:32:47;;;;;;;19.70;14.77;;;4.70;99.90;;;;;;4980815;28;20235;-84
2020/12/05 06:35:19;;;;;;;17.57;14.43;;;4.70;99.90;;;;;;4997450;28;20254;-85
2020/12/05 06:37:45;;;;;;;18.07;14.80;;;4.80;99.90;;;;;;4997298;28;20215;-84
2020/12/05 06:40:10;;;;;;;19.20;15.00;;;4.90;99.90;;;;;;4981491;28;20187;-84
2020/12/05 06:42:38;;;;;;;18.47;14.47;;;4.80;99.90;;;;;;4996766;28;20215;-84
2020/12/05 06:45:04;;;;;;;19.57;15.10;;;4.80;99.90;;;;;;4997177;28;20176;-84
2020/12/05 06:47:29;;;;;;;18.97;15.30;;;4.70;99.90;;;;;;4980361;28;20185;-84
2020/12/05 06:49:55;;;;;;;22.07;16.07;;;4.70;99.90;;;;;;4996853;28;20539;-84
2020/12/05 06:52:26;;;;;;;17.10;14.70;;;4.80;99.90;;;;;;4997186;28;20206;-84
2020/12/05 06:54:53;;;;;;;21.13;14.60;;;4.80;99.90;;;;;;4996813;28;20187;-84
2020/12/05 06:57:19;;;;;;;19.70;15.73;;;4.80;99.90;;;;;;4979705;28;20183;-84
2020/12/05 06:59:44;;;;;;;20.10;15.03;;;4.80;99.90;;;;;;4979642;28;20231;-84
2020/12/05 07:02:26;;;;;;;18.93;14.47;;;4.80;99.90;;;;;;4979732;28;20239;-85
2020/12/05 07:04:51;;;;;;;18.83;15.50;;;4.80;99.90;;;;;;5015989;28;20178;-85
2020/12/05 07:07:30;;;;;;;21.47;16.13;;;4.80;99.90;;;;;;5000309;28;20547;-83
2020/12/05 07:09:55;;;;;;;22.77;16.47;;;4.90;99.90;;;;;;5015428;28;20182;-84
2020/12/05 07:12:21;;;;;;;20.50;15.77;;;4.90;99.90;;;;;;5015479;28;20206;-82
2020/12/05 07:14:46;;;;;;;20.43;15.73;;;4.80;99.90;;;;;;4999547;28;20668;-84
2020/12/05 07:17:21;;;;;;;22.60;17.00;;;4.80;99.90;;;;;;5000606;28;20179;-84
2020/12/05 07:19:49;;;;;;;20.73;16.30;;;4.80;99.90;;;;;;5016515;28;20673;-82
2020/12/05 07:22:15;;;;;;;24.07;18.27;;;4.70;99.90;;;;;;5014665;28;20207;-84
2020/12/05 07:24:40;;;;;;;24.30;18.27;;;4.70;99.90;;;;;;4999087;28;20696;-83
2020/12/05 07:27:06;;;;;;;24.23;18.80;;;4.70;99.90;;;;;;5004581;28;20179;-82
2020/12/05 07:29:31;;;;;;;26.93;18.67;;;4.80;99.90;;;;;;4994155;28;20183;-79
2020/12/05 07:31:57;;;;;;;26.53;19.33;;;4.80;99.90;;;;;;4981724;28;20269;-84
2020/12/05 07:34:22;;;;;;;27.63;19.70;;;4.80;99.90;;;;;;4979441;28;20188;-84
2020/12/05 07:36:48;;;;;;;26.70;18.97;;;4.80;99.90;;;;;;4979282;28;20188;-85
2020/12/05 07:39:13;;;;;;;25.73;19.33;;;4.90;99.90;;;;;;4979537;28;20226;-84
2020/12/05 07:41:39;;;;;;;23.80;18.20;;;4.90;99.90;;;;;;4979442;28;20218;-84
2020/12/05 07:44:04;;;;;;;23.30;18.00;;;4.80;99.90;;;;;;4979419;28;20179;-84
2020/12/05 07:46:31;;;;;;;25.10;16.97;;;4.90;99.90;;;;;;4978900;28;20193;-84
2020/12/05 07:48:56;;;;;;;27.37;17.70;;;4.90;99.90;;;;;;4995456;28;20176;-84
2020/12/05 07:51:22;;;;;;;23.23;17.30;;;4.90;99.90;;;;;;5011615;28;20206;-82
2020/12/05 07:53:49;;;;;;;24.90;18.70;;;4.90;99.90;;;;;;4979782;28;20546;-83
2020/12/05 07:56:21;;;;;;;27.50;20.17;;;5.00;99.90;;;;;;4978891;28;20184;-84
2020/12/05 07:58:53;;;;;;;24.30;17.37;;;4.90;99.90;;;;;;4979393;28;20179;-84
2020/12/05 08:01:26;;;;;;;23.73;18.07;;;4.90;99.90;;;;;;4982464;28;20325;-84
2020/12/05 08:04:13;;;;;;;24.23;17.77;;;4.80;99.90;;;;;;5009260;28;20642;-84
2020/12/05 08:06:43;;;;;;;22.73;16.67;;;4.70;99.90;;;;;;5012095;28;20537;-84
2020/12/05 08:09:09;;;;;;;23.57;16.60;;;4.80;99.90;;;;;;4998754;28;20203;-83
2020/12/05 08:11:40;;;;;;;23.43;17.53;;;4.80;99.90;;;;;;4979683;28;20639;-83
2020/12/05 08:14:06;;;;;;;23.23;17.50;;;4.70;99.90;;;;;;4980123;28;20188;-84
2020/12/05 08:16:38;;;;;;;22.27;16.10;;;4.70;99.90;;;;;;4982762;28;20700;-84
2020/12/05 08:19:04;;;;;;;21.63;16.30;;;4.80;99.90;;;;;;4983307;28;20175;-84
2020/12/05 08:21:29;;;;;;;24.07;16.77;;;4.80;99.90;;;;;;4998640;28;20233;-84
2020/12/05 08:24:05;;;;;;;24.10;15.83;;;4.80;99.90;;;;;;4999500;28;20172;-84
2020/12/05 08:26:30;;;;;;;21.03;16.10;;;4.90;99.90;;;;;;4979704;28;20172;-81
2020/12/05 08:28:56;;;;;;;23.73;16.53;;;4.90;99.90;;;;;;4963410;28;20177;-83
2020/12/05 08:31:21;;;;;;;20.67;15.50;;;4.90;99.90;;;;;;4981948;28;20223;-85
2020/12/05 08:33:48;;;;;;;21.83;16.13;;;4.90;99.90;;;;;;4981782;28;20191;-85
2020/12/05 08:36:31;;;;;;;25.87;15.77;;;5.00;99.90;;;;;;4980872;28;20172;-81
2020/12/05 08:38:57;;;;;;;24.30;16.37;;;4.90;99.90;;;;;;4968454;28;20198;-78
2020/12/05 08:41:23;;;;;;;22.23;15.63;;;4.90;99.90;;;;;;4980934;28;20207;-78
2020/12/05 08:43:49;;;;;;;20.67;16.17;;;4.90;99.90;;;;;;4997822;28;20179;-80
2020/12/05 08:46:18;;;;;;;22.63;16.17;;;4.90;99.90;;;;;;4981034;28;20263;-79
2020/12/05 08:48:44;;;;;;;22.03;15.73;;;4.80;99.90;;;;;;4981341;28;20176;-81
2020/12/05 08:51:09;;;;;;;26.50;16.53;;;4.80;99.90;;;;;;4996968;28;20206;-77
2020/12/05 08:53:35;;;;;;;25.90;17.40;;;4.90;99.90;;;;;;4996484;28;20175;-82
2020/12/05 08:56:00;;;;;;;23.50;16.73;;;5.00;99.90;;;;;;4996642;28;20894;-75
2020/12/05 08:58:26;;;;;;;25.47;16.70;;;5.10;99.90;;;;;;4980594;28;20170;-83
2020/12/05 09:00:51;;;;;;;25.27;16.93;;;5.20;99.90;;;;;;4964225;28;20198;-82
2020/12/05 09:03:21;;;;;;;25.20;16.93;;;5.40;99.90;;;;;;5013962;28;20625;-81
2020/12/05 09:05:47;;;;;;;23.60;16.40;;;5.40;99.90;;;;;;5014027;28;20172;-83
2020/12/05 09:08:17;;;;;;;26.50;17.13;;;5.50;99.90;;;;;;4963799;28;20258;-79
2020/12/05 09:10:43;;;;;;;22.87;16.77;;;5.50;99.90;;;;;;4978413;28;20208;-78
2020/12/05 09:13:08;;;;;;;24.50;16.93;;;5.50;99.90;;;;;;4980347;28;20242;-80
2020/12/05 09:15:35;;;;;;;26.60;17.43;;;5.60;99.90;;;;;;4980538;28;20184;-79
2020/12/05 09:18:01;;;;;;;24.40;15.80;;;5.60;99.90;;;;;;4996675;28;20176;-79
2020/12/05 09:20:27;;;;;;;25.97;17.10;;;5.70;99.90;;;;;;4996575;28;20168;-78
2020/12/05 09:22:56;;;;;;;26.93;17.63;;;5.60;99.90;;;;;;4996019;28;20626;-78
2020/12/05 09:25:38;;;;;;;24.07;17.07;;;5.60;99.90;;;;;;5021945;23;20578;-77
2020/12/05 09:28:08;;;;;;;26.97;17.77;;;5.70;99.90;;;;;;5055564;28;20174;-78
2020/12/05 09:30:34;;;;;;;27.17;18.07;;;5.70;99.90;;;;;;5019748;28;20167;-78
2020/12/05 09:33:02;;;;;;;27.90;18.10;;;5.80;99.90;;;;;;5051749;28;20182;-79
2020/12/05 09:35:27;;;;;;;25.80;16.80;;;5.70;99.90;;;;;;5054682;28;20202;-79
2020/12/05 09:37:53;;;;;;;27.40;18.03;;;5.70;99.90;;;;;;5055585;28;20303;-79
2020/12/05 09:40:19;;;;;;;26.13;18.37;;;5.80;99.90;;;;;;5052630;28;20183;-82
2020/12/05 09:42:45;;;;;;;24.93;17.03;;;5.80;99.90;;;;;;5052984;28;20676;-81
2020/12/05 09:45:12;;;;;;;25.27;16.73;;;5.80;99.90;;;;;;5052604;28;20197;-81
2020/12/05 09:47:38;;;;;;;26.23;18.10;;;5.80;99.90;;;;;;5035844;28;20698;-79
2020/12/05 09:50:04;;;;;;;29.63;17.87;;;5.80;99.90;;;;;;5035576;28;20171;-81
2020/12/05 09:52:30;;;;;;;26.70;17.70;;;5.90;99.90;;;;;;5053207;28;20178;-81
2020/12/05 09:54:56;;;;;;;23.70;16.53;;;6.00;99.90;;;;;;5050409;28;20535;-79
2020/12/05 09:57:21;;;;;;;23.97;17.13;;;6.00;99.90;;;;;;5032308;28;20186;-78
2020/12/05 09:59:47;;;;;;;26.90;17.20;;;6.10;99.90;;;;;;5026488;28;20182;-79
2020/12/05 10:02:12;;;;;;;27.30;16.90;;;6.10;99.90;;;;;;5052397;28;20209;-80
2020/12/05 10:04:38;;;;;;;23.83;16.20;;;6.10;99.90;;;;;;5052340;28;20188;-77
2020/12/05 10:07:04;;;;;;;23.67;16.97;;;6.10;99.90;;;;;;5046208;28;20230;-89
2020/12/05 10:09:29;;;;;;;22.90;16.63;;;6.10;99.90;;;;;;5029007;28;20174;-85
2020/12/05 10:11:55;;;;;;;27.20;17.67;;;6.10;99.90;;;;;;5052013;28;20208;-78
2020/12/05 10:14:21;;;;;;;24.97;16.80;;;6.10;99.90;;;;;;5051768;28;20178;-78
2020/12/05 10:16:46;;;;;;;22.67;15.63;;;6.20;99.90;;;;;;5051479;28;20597;-78
2020/12/05 10:19:12;;;;;;;25.27;15.67;;;6.30;99.90;;;;;;5036582;28;20194;-76
2020/12/05 10:21:37;;;;;;;20.93;14.73;;;6.30;99.90;;;;;;5032937;28;20293;-87
2020/12/05 10:24:03;;;;;;;19.73;15.00;;;6.40;99.90;;;;;;5028859;28;20174;-75
2020/12/05 10:26:28;;;;;;;18.47;14.40;;;6.40;99.90;;;;;;5051787;28;20246;-78
2020/12/05 10:28:54;;;;;;;20.13;14.57;;;6.40;99.90;;;;;;5030320;28;20264;-80
2020/12/05 10:31:19;;;;;;;20.00;13.10;;;6.40;99.90;;;;;;5051578;28;20174;-78
2020/12/05 10:33:45;;;;;;;21.17;15.60;;;6.40;99.90;;;;;;5035170;28;20230;-80
2020/12/05 10:36:11;;;;;;;20.43;13.70;;;6.50;99.90;;;;;;5026653;28;20610;-80
2020/12/05 10:38:36;;;;;;;20.73;14.40;;;6.50;99.90;;;;;;5015440;28;20645;-83
2020/12/05 10:41:02;;;;;;;17.80;13.07;;;6.60;99.90;;;;;;5050131;28;20186;-84
2020/12/05 10:43:27;;;;;;;17.63;12.97;;;6.60;99.90;;;;;;5035975;28;20297;-83
2020/12/05 10:45:53;;;;;;;16.93;11.47;;;6.60;99.90;;;;;;5052642;28;20225;-80
2020/12/05 10:48:18;;;;;;;20.70;12.20;;;6.60;99.90;;;;;;5035105;28;20189;-78
2020/12/05 10:50:44;;;;;;;18.23;12.47;;;6.60;99.90;;;;;;5052314;28;20182;-77
2020/12/05 10:53:09;;;;;;;15.57;11.70;;;6.70;99.90;;;;;;5050092;28;20239;-81
2020/12/05 10:55:35;;;;;;;15.53;11.73;;;6.70;99.90;;;;;;5036062;28;20271;-83
2020/12/05 10:58:00;;;;;;;17.97;11.87;;;6.80;99.90;;;;;;5036045;28;20210;-81
2020/12/05 11:00:26;;;;;;;15.20;10.90;;;6.90;99.90;;;;;;5034584;28;20190;-80
2020/12/05 11:02:51;;;;;;;14.43;11.00;;;6.90;99.90;;;;;;5034673;28;20205;-81
2020/12/05 11:05:17;;;;;;;14.23;10.80;;;6.90;99.90;;;;;;5051401;28;20197;-82
2020/12/05 11:07:42;;;;;;;15.33;10.93;;;6.90;99.90;;;;;;5049230;28;20202;-78
2020/12/05 11:10:08;;;;;;;12.90;10.53;;;7.00;99.90;;;;;;5054260;28;20185;-78
2020/12/05 11:12:33;;;;;;;12.23;9.80;;;7.00;99.90;;;;;;5054378;28;20183;-78
2020/12/05 11:14:59;;;;;;;13.50;8.40;;;7.10;99.90;;;;;;5054506;28;20592;-77
2020/12/05 11:17:24;;;;;;;12.00;9.30;;;7.10;99.90;;;;;;5071827;28;20183;-77
2020/12/05 11:19:50;;;;;;;13.07;10.23;;;7.10;99.90;;;;;;5070710;28;20181;-76
2020/12/05 11:22:15;;;;;;;11.33;7.97;;;7.00;99.90;;;;;;5053909;28;20612;-77
2020/12/05 11:24:41;;;;;;;11.10;7.83;;;7.00;99.90;;;;;;5053982;28;20173;-77
2020/12/05 11:27:06;;;;;;;12.43;9.13;;;7.00;99.90;;;;;;5070666;28;20178;-78
2020/12/05 11:29:32;;;;;;;11.93;8.47;;;7.00;99.90;;;;;;5070777;28;20179;-75
2020/12/05 11:31:57;;;;;;;12.20;8.67;;;6.90;99.90;;;;;;5071975;28;20185;-74
2020/12/05 11:34:23;;;;;;;13.90;8.03;;;7.00;99.90;;;;;;5072381;28;20197;-77
2020/12/05 11:36:48;;;;;;;10.77;7.80;;;7.00;99.90;;;;;;5074462;28;20339;-79
2020/12/05 11:39:14;;;;;;;12.90;8.03;;;7.10;99.90;;;;;;5058361;28;20264;-77
2020/12/05 11:41:40;;;;;;;11.13;7.80;;;7.10;99.90;;;;;;5057844;28;20197;-79
2020/12/05 11:44:05;;;;;;;8.47;6.60;;;7.20;99.90;;;;;;5058683;28;20173;-75
2020/12/05 11:46:31;;;;;;;10.37;7.33;;;7.30;99.90;;;;;;5057679;28;20194;-75
2020/12/05 11:48:57;;;;;;;10.10;7.17;;;7.30;99.90;;;;;;5057931;28;20169;-75
2020/12/05 11:51:24;;;;;;;7.90;6.57;;;7.40;99.90;;;;;;5074393;28;20694;-74
2020/12/05 11:53:49;;;;;;;9.53;6.50;;;7.50;99.90;;;;;;5057595;28;20225;-76
2020/12/05 11:56:15;;;;;;;7.90;5.77;;;7.50;99.90;;;;;;5074033;28;20901;-76
2020/12/05 11:58:40;;;;;;;9.50;5.70;;;7.50;99.90;;;;;;5058714;28;20257;-81
2020/12/05 12:01:06;;;;;;;6.40;5.07;;;7.50;99.90;;;;;;5058269;28;20261;-77
2020/12/05 12:03:32;;;;;;;6.43;5.13;;;7.40;99.90;;;;;;5041757;28;20300;-76
2020/12/05 12:05:57;;;;;;;5.53;4.80;;;7.40;99.90;;;;;;5073997;28;20276;-75
2020/12/05 12:08:23;;;;;;;6.23;4.50;;;7.40;99.90;;;;;;5074134;28;20244;-77
2020/12/05 12:10:48;;;;;;;6.13;4.03;;;7.50;99.90;;;;;;5057136;28;20201;-75
2020/12/05 12:13:14;;;;;;;4.83;4.07;;;7.60;99.90;;;;;;5057310;28;20655;-74
2020/12/05 12:15:39;;;;;;;4.37;3.40;;;7.60;99.90;;;;;;5057052;28;20206;-75
2020/12/05 12:18:05;;;;;;;4.30;3.50;;;7.60;99.90;;;;;;5057057;28;20220;-79
2020/12/05 12:20:30;;;;;;;4.30;2.87;;;7.70;99.90;;;;;;5040906;28;20273;-78
2020/12/05 12:22:56;;;;;;;4.33;3.00;;;7.80;99.90;;;;;;5050367;28;20300;-78
2020/12/05 12:25:21;;;;;;;3.23;2.93;;;7.80;99.90;;;;;;5070064;28;20207;-76
2020/12/05 12:27:47;;;;;;;3.33;2.63;;;7.80;99.90;;;;;;5054566;28;20181;-76
2020/12/05 12:30:12;;;;;;;3.47;2.93;;;7.80;99.90;;;;;;5053723;28;20185;-76
2020/12/05 12:32:38;;;;;;;3.10;2.57;;;7.70;99.90;;;;;;5054731;28;20316;-77
2020/12/05 12:35:03;;;;;;;3.60;2.67;;;7.60;99.90;;;;;;5053462;28;20251;-76
2020/12/05 12:37:29;;;;;;;3.73;2.53;;;7.50;99.90;;;;;;5036580;28;20288;-76